Time;durP1;ratioP1;P1;durP2;ratioP2;P2;SDS_P1;SDS_P2;PMS_P1;PMS_P2;Temp;Humidity;BMP_temperature;BMP_pressure;BME280_temperature;BME280_humidity;BME280_pressure;Samples;Min_cycle;Max_cycle;Signal;HPM_P1;HPM_P2
2023/01/14 05:00:17;;;;;;;5.90;1.60;;;6.20;99.90;;;;;;6094669;23;20386;-75
2023/01/14 05:02:44;;;;;;;2.80;1.60;;;6.20;99.90;;;;;;4966747;28;20467;-75
2023/01/14 05:05:11;;;;;;;5.17;1.60;;;6.20;99.90;;;;;;4968135;28;20501;-76
2023/01/14 05:07:37;;;;;;;6.20;2.10;;;6.30;99.90;;;;;;4966856;28;20979;-76
2023/01/14 05:10:05;;;;;;;9.43;1.80;;;6.30;99.90;;;;;;4967633;28;20463;-76
2023/01/14 05:12:32;;;;;;;9.07;1.90;;;6.30;99.90;;;;;;4983902;28;20475;-79
2023/01/14 05:14:59;;;;;;;8.90;1.90;;;6.30;99.90;;;;;;4987440;28;20503;-76
2023/01/14 05:17:27;;;;;;;4.47;1.60;;;6.30;99.90;;;;;;4986713;28;20458;-77
2023/01/14 05:19:54;;;;;;;8.10;1.90;;;6.30;99.90;;;;;;4986197;28;20459;-77
2023/01/14 05:22:20;;;;;;;5.80;1.63;;;6.30;99.90;;;;;;4987100;28;20486;-76
2023/01/14 05:24:47;;;;;;;4.10;1.77;;;6.30;99.90;;;;;;4986874;28;20869;-76
2023/01/14 05:27:14;;;;;;;7.10;2.10;;;6.30;99.90;;;;;;4986307;28;20444;-77
2023/01/14 05:29:41;;;;;;;7.73;1.70;;;6.30;99.90;;;;;;4985885;28;20467;-78
2023/01/14 05:32:11;;;;;;;4.40;1.80;;;6.30;99.90;;;;;;4987531;28;20483;-75
2023/01/14 05:34:40;;;;;;;8.03;1.87;;;6.30;99.90;;;;;;4987382;28;20554;-76
2023/01/14 05:37:07;;;;;;;3.27;1.80;;;6.30;99.90;;;;;;4986833;28;20455;-76
2023/01/14 05:39:33;;;;;;;6.53;2.30;;;6.40;99.90;;;;;;4987008;28;20452;-76
2023/01/14 05:47:40;;;;;;;8.13;1.90;;;6.40;99.90;;;;;;4926020;29;20528;-75
2023/01/14 05:50:10;;;;;;;10.07;1.87;;;6.50;99.90;;;;;;4972101;28;20460;-76
2023/01/14 05:52:37;;;;;;;8.53;1.50;;;6.40;99.90;;;;;;4986844;28;20467;-76
2023/01/14 05:55:05;;;;;;;4.50;1.90;;;6.50;99.90;;;;;;4987346;28;20451;-75
2023/01/14 05:57:32;;;;;;;6.73;2.20;;;6.50;99.90;;;;;;4986179;28;20828;-75
2023/01/14 05:59:58;;;;;;;7.20;2.00;;;6.50;99.90;;;;;;4986467;28;20454;-75
2023/01/14 06:07:57;;;;;;;7.27;2.93;;;6.50;99.90;;;;;;4986130;28;20432;-74
2023/01/14 06:10:24;;;;;;;2.80;1.50;;;6.50;99.90;;;;;;4986628;28;20463;-75
2023/01/14 06:13:03;;;;;;;5.50;1.90;;;6.40;99.90;;;;;;4986900;28;20764;-74
2023/01/14 06:15:35;;;;;;;4.67;1.70;;;6.50;99.90;;;;;;4986768;28;20453;-74
2023/01/14 06:18:10;;;;;;;5.00;2.07;;;6.40;99.90;;;;;;4986307;28;20518;-76
2023/01/14 06:20:38;;;;;;;5.07;1.70;;;6.40;99.90;;;;;;4987324;28;20478;-75
2023/01/14 06:23:05;;;;;;;6.57;1.90;;;6.40;99.90;;;;;;4986597;28;20462;-75
2023/01/14 06:25:33;;;;;;;7.87;2.13;;;6.40;99.90;;;;;;4989674;28;20501;-76
2023/01/14 06:28:01;;;;;;;9.73;2.67;;;6.40;99.90;;;;;;4989282;28;20465;-75
2023/01/14 06:30:28;;;;;;;6.90;2.30;;;6.40;99.90;;;;;;4989104;28;20927;-72
2023/01/14 06:32:55;;;;;;;6.43;2.50;;;6.50;99.90;;;;;;4989145;28;20447;-72
2023/01/14 06:35:23;;;;;;;3.53;1.70;;;6.50;99.90;;;;;;4989203;28;20535;-73
2023/01/14 06:37:51;;;;;;;7.60;2.23;;;6.40;99.90;;;;;;4989146;28;20459;-73
2023/01/14 06:40:19;;;;;;;13.40;2.53;;;6.50;99.90;;;;;;4989141;28;20853;-72
2023/01/14 06:42:47;;;;;;;4.80;1.70;;;6.50;99.90;;;;;;4988925;28;20557;-73
2023/01/14 06:45:13;;;;;;;7.47;2.90;;;6.50;99.90;;;;;;4989292;28;20498;-73
2023/01/14 06:47:40;;;;;;;2.77;1.57;;;6.60;99.90;;;;;;4988594;28;20455;-72
2023/01/14 06:50:08;;;;;;;4.40;1.70;;;6.50;99.90;;;;;;4988687;28;20464;-74
2023/01/14 06:52:34;;;;;;;7.20;2.40;;;6.60;99.90;;;;;;4988653;28;20482;-74
2023/01/14 06:55:03;;;;;;;6.80;2.30;;;6.50;99.90;;;;;;4989735;28;20455;-74
2023/01/14 06:57:29;;;;;;;5.43;1.80;;;6.50;99.90;;;;;;4988011;28;20466;-73
2023/01/14 06:59:58;;;;;;;5.13;1.70;;;6.50;99.90;;;;;;4988757;28;20455;-73
2023/01/14 07:02:25;;;;;;;6.53;1.83;;;6.50;99.90;;;;;;4988821;28;20542;-76
2023/01/14 07:04:52;;;;;;;5.30;2.60;;;6.50;99.90;;;;;;4987571;28;20467;-65
2023/01/14 07:07:18;;;;;;;6.77;2.13;;;6.50;99.90;;;;;;4986435;28;20452;-65
2023/01/14 07:09:45;;;;;;;10.17;2.20;;;6.60;99.90;;;;;;4986714;28;20464;-65
2023/01/14 07:12:14;;;;;;;11.53;2.10;;;6.60;99.90;;;;;;4987227;28;20842;-73
2023/01/14 07:14:41;;;;;;;6.83;1.77;;;6.70;99.90;;;;;;4987490;28;20451;-74
2023/01/14 07:17:08;;;;;;;12.73;2.83;;;6.70;99.90;;;;;;4986513;28;20455;-74
2023/01/14 07:19:35;;;;;;;3.83;1.60;;;6.70;99.90;;;;;;4987031;28;20463;-75
2023/01/14 07:22:01;;;;;;;6.00;1.90;;;6.70;99.90;;;;;;4987490;28;20471;-74
2023/01/14 07:24:28;;;;;;;9.47;1.97;;;6.70;99.90;;;;;;4987218;28;20459;-73
2023/01/14 07:26:55;;;;;;;5.20;2.40;;;6.70;99.90;;;;;;4986302;28;20505;-73
2023/01/14 07:29:23;;;;;;;5.50;2.30;;;6.70;99.90;;;;;;4986417;28;20455;-72
2023/01/14 07:31:52;;;;;;;13.20;2.40;;;6.80;99.90;;;;;;4986981;28;20502;-73
2023/01/14 07:34:19;;;;;;;6.67;2.20;;;6.80;99.90;;;;;;4987027;28;20458;-73
2023/01/14 07:36:46;;;;;;;10.80;2.50;;;6.80;99.90;;;;;;4969135;28;20445;-73
2023/01/14 07:39:13;;;;;;;6.10;2.20;;;6.80;99.90;;;;;;4955409;28;20459;-74
2023/01/14 07:41:40;;;;;;;5.60;1.93;;;6.80;99.90;;;;;;4956497;28;20473;-72
2023/01/14 07:44:07;;;;;;;9.40;2.77;;;6.80;99.90;;;;;;4957346;28;20461;-73
2023/01/14 07:46:35;;;;;;;8.47;2.00;;;6.70;99.90;;;;;;4957213;28;20485;-73
2023/01/14 07:49:02;;;;;;;3.63;1.77;;;6.70;99.90;;;;;;4956459;28;20484;-73
2023/01/14 07:51:29;;;;;;;6.13;1.90;;;6.80;99.90;;;;;;4965966;28;20995;-73
2023/01/14 07:53:56;;;;;;;5.23;1.90;;;6.80;99.90;;;;;;4967147;28;20464;-73
2023/01/14 07:56:22;;;;;;;11.37;1.93;;;6.80;99.90;;;;;;4969463;28;20831;-73
2023/01/14 07:58:49;;;;;;;8.30;2.00;;;6.80;99.90;;;;;;4966877;28;21270;-75
2023/01/14 08:01:16;;;;;;;4.83;1.70;;;6.80;99.90;;;;;;4924555;28;1252746;-73
2023/01/14 08:03:44;;;;;;;7.80;2.70;;;6.80;99.90;;;;;;4967361;28;20212;-73
2023/01/14 08:06:11;;;;;;;9.63;1.80;;;6.80;99.90;;;;;;4966967;28;20492;-73
2023/01/14 08:08:38;;;;;;;7.63;2.43;;;6.90;99.90;;;;;;4968177;28;20968;-76
2023/01/14 08:11:05;;;;;;;6.90;2.07;;;6.90;99.90;;;;;;4967781;28;20480;-73
2023/01/14 08:13:32;;;;;;;6.43;2.37;;;6.90;99.90;;;;;;4967321;28;20821;-74
2023/01/14 08:16:01;;;;;;;6.33;2.20;;;6.90;99.90;;;;;;4966964;28;20538;-74
2023/01/14 08:18:29;;;;;;;7.50;2.23;;;6.90;99.90;;;;;;4967137;28;20457;-76
2023/01/14 08:21:02;;;;;;;3.97;2.13;;;7.00;99.90;;;;;;4967785;28;20535;-74
2023/01/14 08:23:29;;;;;;;9.47;2.70;;;7.00;99.90;;;;;;4967273;28;20967;-73
2023/01/14 08:26:00;;;;;;;8.87;2.43;;;7.00;99.90;;;;;;4967060;28;20496;-76
2023/01/14 08:28:27;;;;;;;8.20;2.00;;;7.10;99.90;;;;;;4967481;28;20496;-76
2023/01/14 08:31:01;;;;;;;8.40;2.00;;;7.00;99.90;;;;;;4967465;28;20476;-72
2023/01/14 08:33:28;;;;;;;8.37;2.33;;;7.10;99.90;;;;;;4967416;28;20440;-72
2023/01/14 08:35:54;;;;;;;7.10;2.20;;;7.10;99.90;;;;;;4966803;28;20464;-75
2023/01/14 08:38:23;;;;;;;7.30;2.60;;;7.10;99.90;;;;;;4966819;28;20452;-72
2023/01/14 08:40:49;;;;;;;13.87;2.53;;;7.10;99.90;;;;;;4967053;28;20487;-73
2023/01/14 08:43:16;;;;;;;8.93;2.50;;;7.20;99.90;;;;;;4967211;28;20456;-72
2023/01/14 08:45:43;;;;;;;11.70;2.73;;;7.30;99.90;;;;;;4967260;28;20496;-73
2023/01/14 08:48:10;;;;;;;5.47;2.77;;;7.20;99.90;;;;;;4965580;28;20476;-71
2023/01/14 08:50:36;;;;;;;9.13;2.67;;;7.30;99.90;;;;;;4966702;28;20857;-73
2023/01/14 08:53:04;;;;;;;11.73;3.50;;;7.20;99.90;;;;;;4967053;28;20437;-74
2023/01/14 08:55:32;;;;;;;15.43;2.73;;;7.30;99.90;;;;;;4967017;28;20460;-73
2023/01/14 08:57:59;;;;;;;6.50;2.37;;;7.30;99.90;;;;;;4951423;28;20457;-73
2023/01/14 09:00:26;;;;;;;11.70;2.27;;;7.40;99.90;;;;;;4947546;29;20472;-73
2023/01/14 09:02:53;;;;;;;8.23;2.43;;;7.40;99.90;;;;;;4947667;29;20965;-72
2023/01/14 09:05:19;;;;;;;7.83;2.60;;;7.40;99.90;;;;;;4947647;28;20976;-73
2023/01/14 09:18:44;;;;;;;6.13;2.33;;;7.60;99.90;;;;;;4948032;29;21040;-75
2023/01/14 09:21:11;;;;;;;9.93;2.10;;;7.60;99.90;;;;;;4948400;29;20473;-75
2023/01/14 09:23:38;;;;;;;5.27;2.40;;;7.70;99.90;;;;;;4948531;29;20457;-73
2023/01/14 09:26:06;;;;;;;5.53;2.30;;;7.80;99.90;;;;;;4947647;29;20511;-72
2023/01/14 09:28:33;;;;;;;7.87;1.73;;;7.80;99.90;;;;;;4947799;29;20469;-74
2023/01/14 09:31:00;;;;;;;4.47;2.13;;;7.80;99.90;;;;;;4948085;29;20516;-78
2023/01/14 09:33:27;;;;;;;6.70;2.20;;;7.90;99.90;;;;;;4947262;28;20831;-76
2023/01/14 09:35:53;;;;;;;6.90;2.00;;;8.00;99.90;;;;;;4947762;28;20452;-77
2023/01/14 09:38:20;;;;;;;14.77;4.47;;;8.00;99.90;;;;;;4947233;29;20467;-67
2023/01/14 09:40:47;;;;;;;4.63;2.00;;;8.10;99.90;;;;;;4947687;29;20461;-67
2023/01/14 09:43:20;;;;;;;6.40;2.03;;;8.10;99.90;;;;;;4947395;29;20973;-68
2023/01/14 09:45:50;;;;;;;3.43;1.70;;;8.20;99.90;;;;;;4948012;29;20462;-72
2023/01/14 09:48:21;;;;;;;7.53;1.93;;;8.30;99.90;;;;;;4947991;29;20476;-73
2023/01/14 09:51:00;;;;;;;9.13;2.63;;;8.40;99.90;;;;;;4948034;28;20472;-72
2023/01/14 09:53:48;;;;;;;3.37;1.93;;;8.40;99.90;;;;;;4947484;29;20552;-72
2023/01/14 09:56:23;;;;;;;6.50;2.20;;;8.40;99.90;;;;;;4946553;29;20442;-74
2023/01/14 09:58:54;;;;;;;3.67;1.50;;;8.30;99.90;;;;;;4949285;28;20475;-72
2023/01/14 10:01:29;;;;;;;4.93;1.80;;;8.30;99.90;;;;;;4950538;29;20481;-71
2023/01/14 10:04:02;;;;;;;5.00;1.60;;;8.30;99.90;;;;;;4950868;29;20812;-72
2023/01/14 10:06:29;;;;;;;6.10;1.50;;;8.30;99.90;;;;;;4949850;29;20493;-72
2023/01/14 10:09:03;;;;;;;7.53;2.20;;;8.40;99.90;;;;;;4950675;28;20457;-72
2023/01/14 10:11:33;;;;;;;8.63;2.00;;;8.40;99.90;;;;;;4950755;29;20473;-72
2023/01/14 10:14:06;;;;;;;6.90;2.23;;;8.50;99.90;;;;;;4950658;29;20444;-73
2023/01/14 10:16:40;;;;;;;5.07;2.03;;;8.50;99.90;;;;;;4950158;29;20442;-72
2023/01/14 10:19:13;;;;;;;7.00;2.10;;;8.50;99.90;;;;;;4950178;29;20457;-72
2023/01/14 10:21:43;;;;;;;3.47;1.63;;;8.60;99.90;;;;;;4950495;29;20473;-70
2023/01/14 10:24:12;;;;;;;3.33;1.60;;;8.50;99.90;;;;;;4950747;29;20449;-71
2023/01/14 10:26:40;;;;;;;11.70;1.90;;;8.60;99.90;;;;;;4949423;28;21087;-72
2023/01/14 10:29:15;;;;;;;4.57;1.80;;;8.60;99.90;;;;;;4950163;28;20457;-76
2023/01/14 10:31:48;;;;;;;4.37;2.10;;;8.70;99.90;;;;;;4950089;29;20489;-76
2023/01/14 10:34:26;;;;;;;5.07;1.53;;;8.80;99.90;;;;;;4950415;29;20441;-72
2023/01/14 10:36:53;;;;;;;7.20;2.00;;;8.80;99.90;;;;;;4949603;29;20460;-73
2023/01/14 10:39:20;;;;;;;2.33;1.40;;;8.80;99.90;;;;;;4950333;29;20828;-70
2023/01/14 10:41:50;;;;;;;2.40;1.80;;;8.80;99.90;;;;;;4949892;29;21023;-70
2023/01/14 10:44:22;;;;;;;6.20;2.10;;;8.80;99.90;;;;;;4950330;29;20449;-65
2023/01/14 10:46:50;;;;;;;11.50;2.10;;;8.80;99.90;;;;;;4949858;28;20539;-73
2023/01/14 10:49:20;;;;;;;4.60;1.70;;;8.90;99.90;;;;;;4949828;28;20456;-73
2023/01/14 10:51:50;;;;;;;7.17;2.00;;;8.90;99.90;;;;;;4949721;29;21167;-73
2023/01/14 10:54:19;;;;;;;3.60;1.60;;;8.90;99.90;;;;;;4949696;29;20883;-72
2023/01/14 10:56:51;;;;;;;3.60;1.93;;;9.00;99.90;;;;;;4949029;28;20504;-73
2023/01/14 10:59:39;;;;;;;4.70;1.70;;;9.00;99.90;;;;;;4949821;29;20534;-73
2023/01/14 11:02:18;;;;;;;5.90;1.77;;;9.00;99.90;;;;;;4949694;29;20489;-73
2023/01/14 11:04:45;;;;;;;10.60;2.13;;;9.10;99.90;;;;;;4949586;29;20471;-72
2023/01/14 11:07:19;;;;;;;4.50;1.45;;;9.10;99.90;;;;;;4947710;28;20966;-70
2023/01/14 11:09:46;;;;;;;2.30;1.37;;;9.40;99.90;;;;;;4948637;28;20210;-73
2023/01/14 11:12:27;;;;;;;6.60;1.57;;;9.40;99.90;;;;;;4949804;29;20487;-72
2023/01/14 11:14:55;;;;;;;3.50;1.80;;;9.40;99.90;;;;;;4949332;29;20492;-72
2023/01/14 11:17:24;;;;;;;3.90;1.40;;;9.40;99.90;;;;;;4948693;29;20468;-72
2023/01/14 11:19:51;;;;;;;1.80;1.10;;;9.40;99.90;;;;;;4949104;28;20476;-71
2023/01/14 11:22:19;;;;;;;5.17;1.67;;;9.30;99.90;;;;;;4949449;28;20470;-71
2023/01/14 11:24:48;;;;;;;4.60;3.00;;;9.30;99.90;;;;;;4949287;28;20462;-76
2023/01/14 11:27:17;;;;;;;3.50;1.40;;;9.30;99.90;;;;;;4948460;29;20590;-70
2023/01/14 11:29:48;;;;;;;2.20;1.27;;;9.30;99.90;;;;;;4949299;29;20485;-71
2023/01/14 11:32:21;;;;;;;3.20;1.50;;;9.30;99.90;;;;;;4948626;29;21064;-71
2023/01/14 11:34:50;;;;;;;2.60;1.37;;;9.40;99.90;;;;;;4949316;28;20456;-71
2023/01/14 11:37:19;;;;;;;6.80;1.43;;;9.40;99.90;;;;;;4948562;28;20452;-71
2023/01/14 11:39:50;;;;;;;4.33;1.70;;;9.40;99.90;;;;;;4949077;28;20456;-72
2023/01/14 11:42:33;;;;;;;5.33;1.50;;;9.40;99.90;;;;;;4949058;28;20485;-71
2023/01/14 11:45:03;;;;;;;1.20;1.10;;;9.40;99.90;;;;;;4948959;29;20440;-71
2023/01/14 11:47:31;;;;;;;3.00;1.53;;;9.40;99.90;;;;;;4947712;28;20529;-71
2023/01/14 11:50:15;;;;;;;5.20;1.60;;;9.40;99.90;;;;;;4948622;29;20730;-72
2023/01/14 11:52:41;;;;;;;2.30;1.30;;;9.50;99.90;;;;;;4948845;28;20461;-72
2023/01/14 11:55:14;;;;;;;1.60;1.20;;;9.50;99.90;;;;;;4948648;28;20457;-72
2023/01/14 11:57:43;;;;;;;2.00;1.10;;;9.60;99.90;;;;;;4948340;28;20441;-72
2023/01/14 12:00:12;;;;;;;2.70;1.43;;;9.60;99.90;;;;;;4948796;29;20452;-72
2023/01/14 12:02:44;;;;;;;3.47;1.37;;;9.70;99.90;;;;;;4948756;29;20834;-72
2023/01/14 12:05:15;;;;;;;3.53;1.47;;;9.70;99.90;;;;;;4948844;29;20458;-72
2023/01/14 12:07:46;;;;;;;1.23;1.10;;;9.70;99.90;;;;;;4947365;28;20508;-72
2023/01/14 12:10:20;;;;;;;3.17;1.60;;;9.80;99.90;;;;;;4948596;29;20445;-71
2023/01/14 12:18:33;;;;;;;7.23;1.77;;;9.80;99.90;;;;;;4948409;28;20501;-71
2023/01/14 12:21:02;;;;;;;2.30;1.40;;;9.80;99.90;;;;;;4948130;28;20483;-72
2023/01/14 12:23:34;;;;;;;1.43;1.33;;;9.80;99.90;;;;;;4948180;29;20446;-71
2023/01/14 12:26:12;;;;;;;2.30;1.60;;;9.80;99.90;;;;;;4947307;29;20805;-72
2023/01/14 12:28:42;;;;;;;1.47;1.37;;;9.80;99.90;;;;;;4947626;28;20481;-72
2023/01/14 12:31:14;;;;;;;4.60;1.50;;;9.90;99.90;;;;;;4948118;29;20465;-72
2023/01/14 12:33:46;;;;;;;2.00;1.20;;;9.90;99.90;;;;;;4947094;29;20998;-71
2023/01/14 12:36:18;;;;;;;2.30;1.30;;;9.90;99.90;;;;;;4946561;29;20778;-71
2023/01/14 12:47:11;;;;;;;1.63;1.30;;;9.90;99.90;;;;;;4946110;28;20512;-71
2023/01/14 12:49:40;;;;;;;2.90;1.40;;;9.90;99.90;;;;;;4946935;29;20458;-71
2023/01/14 12:52:08;;;;;;;5.50;1.53;;;9.90;99.90;;;;;;4947202;28;20512;-72
2023/01/14 12:54:36;;;;;;;2.00;1.53;;;10.00;99.90;;;;;;4947027;29;20457;-71
2023/01/14 12:57:07;;;;;;;3.57;1.73;;;10.00;99.90;;;;;;4946040;28;20456;-71
2023/01/14 12:59:36;;;;;;;1.87;1.30;;;10.00;99.90;;;;;;4946619;28;20941;-71
2023/01/14 13:02:06;;;;;;;5.17;4.17;;;10.00;99.90;;;;;;4946740;28;20489;-71
2023/01/14 13:04:38;;;;;;;3.90;1.50;;;10.00;99.90;;;;;;4947061;29;20440;-71
2023/01/14 13:07:08;;;;;;;2.53;1.40;;;9.90;99.90;;;;;;4945623;29;20493;-71
2023/01/14 13:09:44;;;;;;;1.53;1.20;;;9.90;99.90;;;;;;4946439;29;20468;-71
2023/01/14 13:12:23;;;;;;;3.13;1.50;;;10.00;99.90;;;;;;4946866;28;20500;-71
2023/01/14 13:14:55;;;;;;;3.13;1.80;;;9.90;99.90;;;;;;4947515;29;20461;-72
2023/01/14 13:17:35;;;;;;;3.27;2.10;;;9.90;99.90;;;;;;4946464;29;20455;-72
2023/01/14 13:20:04;;;;;;;2.83;1.60;;;10.00;99.90;;;;;;4947103;29;20519;-72
2023/01/14 13:22:50;;;;;;;2.20;1.50;;;10.00;99.90;;;;;;4946869;29;20571;-72
2023/01/14 13:25:34;;;;;;;2.20;1.53;;;10.00;99.90;;;;;;4947593;29;20434;-72
2023/01/14 13:28:04;;;;;;;2.57;1.93;;;10.00;99.90;;;;;;4946820;29;20488;-72
2023/01/14 13:30:46;;;;;;;4.80;1.70;;;10.10;99.90;;;;;;4946897;29;20452;-72
2023/01/14 13:33:28;;;;;;;3.57;1.40;;;10.00;99.90;;;;;;4948060;28;20468;-71
2023/01/14 13:36:19;;;;;;;3.63;2.07;;;10.00;99.90;;;;;;4951075;29;20465;-71
2023/01/14 13:39:02;;;;;;;3.63;1.80;;;9.90;99.90;;;;;;4951105;29;20460;-71
2023/01/14 13:41:41;;;;;;;7.57;1.80;;;10.00;99.90;;;;;;4950736;29;20485;-72
2023/01/14 13:44:26;;;;;;;2.13;1.60;;;10.00;99.90;;;;;;4950565;28;20941;-73
2023/01/14 13:46:55;;;;;;;3.50;1.60;;;9.90;99.90;;;;;;4950152;29;20512;-72
2023/01/14 13:49:30;;;;;;;4.97;1.80;;;9.90;99.90;;;;;;4950712;28;20463;-72
2023/01/14 13:52:04;;;;;;;1.87;1.47;;;9.90;99.90;;;;;;4950987;28;20472;-72
2023/01/14 13:54:35;;;;;;;4.70;1.60;;;9.90;99.90;;;;;;4951072;29;20469;-73
2023/01/14 13:57:20;;;;;;;5.80;1.93;;;9.90;99.90;;;;;;4950435;29;20456;-73
2023/01/14 13:59:52;;;;;;;4.43;2.47;;;10.00;99.90;;;;;;4950496;29;20472;-73
2023/01/14 14:02:48;;;;;;;6.37;2.30;;;10.00;99.90;;;;;;4950298;29;20489;-72
2023/01/14 14:05:25;;;;;;;2.43;1.70;;;10.10;99.90;;;;;;4951030;29;20511;-72
2023/01/14 14:08:20;;;;;;;3.53;1.50;;;10.10;99.90;;;;;;4949965;28;20615;-72
2023/01/14 14:11:06;;;;;;;2.60;1.60;;;10.10;99.90;;;;;;4950910;28;20481;-72
2023/01/14 14:16:25;;;;;;;2.60;1.60;;;10.10;99.90;;;;;;4949665;29;20875;-72
2023/01/14 14:19:02;;;;;;;2.47;1.80;;;10.10;99.90;;;;;;4950361;29;20449;-72
2023/01/14 14:21:38;;;;;;;2.93;2.10;;;10.10;99.90;;;;;;4950422;29;20500;-72
2023/01/14 14:24:08;;;;;;;5.77;3.33;;;10.10;99.90;;;;;;4969073;28;20460;-72
2023/01/14 14:26:38;;;;;;;4.07;2.33;;;10.10;99.90;;;;;;4968723;28;20458;-72
2023/01/14 14:29:12;;;;;;;3.43;1.90;;;10.00;99.90;;;;;;4961981;28;20496;-72
2023/01/14 14:31:40;;;;;;;2.70;2.10;;;10.10;99.90;;;;;;4969584;28;20480;-73
2023/01/14 14:34:10;;;;;;;2.30;1.60;;;10.10;99.90;;;;;;4969470;28;20457;-73
2023/01/14 14:36:39;;;;;;;5.50;1.80;;;10.10;99.90;;;;;;4968696;28;20932;-73
2023/01/14 14:39:21;;;;;;;3.67;2.40;;;10.10;99.90;;;;;;4969250;28;20460;-73
2023/01/14 14:41:49;;;;;;;5.13;2.10;;;10.10;99.90;;;;;;4964524;28;20469;-73
2023/01/14 14:44:19;;;;;;;2.73;2.20;;;10.00;99.90;;;;;;4949468;28;20457;-73
2023/01/14 14:46:46;;;;;;;4.80;2.57;;;10.00;99.90;;;;;;4949375;29;20460;-74
2023/01/14 14:49:20;;;;;;;7.70;2.30;;;10.00;99.90;;;;;;4949582;29;20493;-73
2023/01/14 14:51:48;;;;;;;7.10;3.03;;;10.00;99.90;;;;;;4949717;29;20473;-73
2023/01/14 14:54:26;;;;;;;3.73;2.83;;;10.00;99.90;;;;;;4949674;29;20552;-73
2023/01/14 14:56:56;;;;;;;6.00;5.37;;;9.90;99.90;;;;;;4949240;29;20581;-73
2023/01/14 14:59:24;;;;;;;5.80;2.23;;;9.90;99.90;;;;;;4950284;28;20472;-73
2023/01/14 15:01:52;;;;;;;3.70;2.10;;;9.90;99.90;;;;;;4950012;29;20489;-73
2023/01/14 15:04:22;;;;;;;3.83;2.13;;;9.80;99.90;;;;;;4949559;28;20471;-73
2023/01/14 15:06:52;;;;;;;2.00;1.87;;;9.80;99.90;;;;;;4949028;29;20880;-74
2023/01/14 15:09:22;;;;;;;4.83;2.47;;;9.80;99.90;;;;;;4950247;28;20474;-73
2023/01/14 15:11:50;;;;;;;6.63;3.67;;;9.80;99.90;;;;;;4948947;29;20482;-76
2023/01/14 15:14:25;;;;;;;7.27;4.03;;;9.90;99.90;;;;;;4949749;28;21129;-74
2023/01/14 15:16:53;;;;;;;5.40;3.00;;;9.80;99.90;;;;;;4950037;28;20977;-74
2023/01/14 15:19:20;;;;;;;2.00;1.77;;;9.80;99.90;;;;;;4950604;29;20837;-74
2023/01/14 15:21:48;;;;;;;5.90;2.40;;;9.80;99.90;;;;;;4950799;29;20516;-76
2023/01/14 15:24:18;;;;;;;3.73;2.00;;;9.70;99.90;;;;;;4950917;29;20461;-73
2023/01/14 15:26:46;;;;;;;4.47;1.90;;;9.70;99.90;;;;;;4949401;29;20465;-72
2023/01/14 15:29:18;;;;;;;2.33;2.07;;;9.70;99.90;;;;;;4950149;28;20497;-73
2023/01/14 15:31:46;;;;;;;3.60;1.90;;;9.70;99.90;;;;;;4949501;29;20474;-73
2023/01/14 15:34:23;;;;;;;1.50;1.20;;;9.70;99.90;;;;;;4949195;29;20468;-72
2023/01/14 15:37:06;;;;;;;3.33;2.67;;;9.70;99.90;;;;;;4948727;28;20520;-72
2023/01/14 15:39:36;;;;;;;2.67;2.10;;;9.60;99.90;;;;;;4949637;29;20499;-71
2023/01/14 15:42:06;;;;;;;4.27;2.27;;;9.70;99.90;;;;;;4948713;29;20482;-72
2023/01/14 15:44:38;;;;;;;4.53;2.33;;;9.70;99.90;;;;;;4948644;28;20452;-71
2023/01/14 15:47:07;;;;;;;4.57;2.40;;;9.70;99.90;;;;;;4948618;29;20456;-66
2023/01/14 15:49:34;;;;;;;3.07;2.10;;;9.60;99.90;;;;;;4948582;29;21092;-66
2023/01/14 15:52:05;;;;;;;3.30;2.10;;;9.70;99.90;;;;;;4948598;28;20477;-65
2023/01/14 15:54:38;;;;;;;3.70;2.70;;;9.70;99.90;;;;;;4948448;28;20457;-65
2023/01/14 15:57:15;;;;;;;9.67;5.10;;;9.60;99.90;;;;;;4947868;28;20450;-65
2023/01/14 15:59:44;;;;;;;5.60;2.70;;;9.60;99.90;;;;;;4948819;29;20544;-69
2023/01/14 16:02:25;;;;;;;3.30;1.87;;;9.50;99.90;;;;;;4948251;29;20997;-73
2023/01/14 16:04:52;;;;;;;3.17;2.13;;;9.40;99.90;;;;;;4948340;29;20469;-73
2023/01/14 16:07:22;;;;;;;4.53;2.10;;;9.40;99.90;;;;;;4947463;29;20980;-73
2023/01/14 16:09:55;;;;;;;4.67;2.57;;;9.30;99.90;;;;;;4948437;29;20497;-73
2023/01/14 16:12:21;;;;;;;4.50;2.03;;;9.30;99.90;;;;;;4948548;29;20477;-73
2023/01/14 16:14:48;;;;;;;3.93;2.10;;;9.30;99.90;;;;;;4948216;29;20973;-73
2023/01/14 16:17:17;;;;;;;1.50;1.20;;;9.30;99.90;;;;;;4947661;29;20466;-73
2023/01/14 16:19:47;;;;;;;1.67;1.40;;;9.30;99.90;;;;;;4947925;28;21025;-73
2023/01/14 16:22:14;;;;;;;4.90;1.50;;;9.30;99.90;;;;;;4948144;28;20548;-73
2023/01/14 16:24:41;;;;;;;3.57;1.13;;;9.40;99.90;;;;;;4948200;28;21117;-75
2023/01/14 16:27:18;;;;;;;1.40;1.20;;;9.40;99.90;;;;;;4947655;29;20457;-76
2023/01/14 16:29:45;;;;;;;2.67;1.53;;;9.40;99.90;;;;;;4948703;28;20488;-78
2023/01/14 16:32:12;;;;;;;3.20;1.37;;;9.40;99.90;;;;;;4948606;28;20523;-77
2023/01/14 16:34:39;;;;;;;3.20;1.50;;;9.50;99.90;;;;;;4949148;28;20469;-78
2023/01/14 16:37:07;;;;;;;2.30;1.47;;;9.50;99.90;;;;;;4947426;29;20834;-75
2023/01/14 16:39:34;;;;;;;3.97;1.20;;;9.50;99.90;;;;;;4947793;29;20852;-75
2023/01/14 16:42:01;;;;;;;4.00;1.00;;;9.60;99.90;;;;;;4947693;29;20482;-74
2023/01/14 16:44:27;;;;;;;2.33;1.20;;;9.60;99.90;;;;;;4948198;29;20515;-73
2023/01/14 16:46:54;;;;;;;1.80;1.20;;;9.70;99.90;;;;;;4947984;29;20529;-75
2023/01/14 16:49:21;;;;;;;1.73;1.10;;;9.70;99.90;;;;;;4948609;28;21048;-75
2023/01/14 16:51:48;;;;;;;1.53;1.30;;;9.70;99.90;;;;;;4961304;28;20564;-74
2023/01/14 16:54:18;;;;;;;1.90;1.50;;;9.70;99.90;;;;;;4967312;28;20476;-74
2023/01/14 16:56:45;;;;;;;2.80;1.00;;;9.80;99.90;;;;;;4972456;28;20458;-76
2023/01/14 16:59:12;;;;;;;1.73;1.50;;;9.80;99.90;;;;;;4986222;28;20459;-75
2023/01/14 17:01:40;;;;;;;2.20;1.50;;;9.80;99.90;;;;;;4986027;28;20590;-75
2023/01/14 17:04:06;;;;;;;1.60;1.27;;;9.80;99.90;;;;;;4986443;28;20466;-75
2023/01/14 17:06:34;;;;;;;2.83;1.40;;;9.80;99.90;;;;;;4985827;28;20458;-74
2023/01/14 17:09:01;;;;;;;1.10;1.00;;;9.80;99.90;;;;;;4985413;28;20498;-74
2023/01/14 17:14:14;;;;;;;1.77;1.27;;;9.80;99.90;;;;;;4986369;28;20431;-74
2023/01/14 17:16:41;;;;;;;1.60;1.10;;;9.80;99.90;;;;;;4985629;28;20463;-73
2023/01/14 17:19:07;;;;;;;2.80;1.30;;;9.80;99.90;;;;;;4986164;28;20456;-73
2023/01/14 17:21:34;;;;;;;1.90;1.30;;;9.90;99.90;;;;;;4986270;28;20479;-73
2023/01/14 17:24:01;;;;;;;1.30;1.10;;;9.90;99.90;;;;;;4985156;28;20458;-73
2023/01/14 17:26:29;;;;;;;1.40;1.30;;;9.90;99.90;;;;;;4985297;28;20503;-73
2023/01/14 17:28:56;;;;;;;1.60;1.20;;;9.80;99.90;;;;;;4985677;28;20509;-73
2023/01/14 17:31:23;;;;;;;1.60;1.30;;;9.80;99.90;;;;;;4986090;28;20482;-73
2023/01/14 17:33:53;;;;;;;3.20;1.30;;;9.80;99.90;;;;;;4984668;28;20511;-73
2023/01/14 17:36:20;;;;;;;1.77;1.17;;;9.80;99.90;;;;;;4985259;28;20490;-73
2023/01/14 17:38:49;;;;;;;2.03;1.60;;;9.90;99.90;;;;;;4985648;28;20451;-73
2023/01/14 17:44:06;;;;;;;2.17;2.00;;;9.90;99.90;;;;;;4985945;28;20435;-73
2023/01/14 17:46:33;;;;;;;2.17;1.63;;;10.00;99.90;;;;;;4985402;28;20465;-73
2023/01/14 17:49:00;;;;;;;2.03;1.63;;;9.90;99.90;;;;;;4983889;28;20487;-73
2023/01/14 17:51:28;;;;;;;2.60;2.30;;;10.00;99.90;;;;;;4985426;28;20478;-73
2023/01/14 17:53:56;;;;;;;1.90;1.60;;;10.00;99.90;;;;;;4984295;28;20462;-73
2023/01/14 17:56:23;;;;;;;1.60;1.40;;;9.90;99.90;;;;;;4984178;28;20463;-74
2023/01/14 17:58:49;;;;;;;2.10;1.90;;;9.90;99.90;;;;;;4984762;28;20456;-75
2023/01/14 18:01:19;;;;;;;4.10;1.70;;;9.80;99.90;;;;;;4984650;28;20518;-74
2023/01/14 18:03:52;;;;;;;2.00;1.60;;;9.80;99.90;;;;;;4984760;28;21013;-75
2023/01/14 18:06:19;;;;;;;2.67;1.73;;;9.80;99.90;;;;;;4984125;28;20455;-75
2023/01/14 18:08:46;;;;;;;1.67;1.57;;;9.80;99.90;;;;;;4984826;28;20582;-75
2023/01/14 18:11:14;;;;;;;1.70;1.60;;;9.90;99.90;;;;;;4984652;28;20487;-75
2023/01/14 18:13:41;;;;;;;3.80;2.20;;;9.90;99.90;;;;;;4984362;28;20456;-75
2023/01/14 18:16:07;;;;;;;2.50;1.60;;;9.80;99.90;;;;;;4984061;28;20460;-75
2023/01/14 18:18:36;;;;;;;2.23;1.43;;;9.90;99.90;;;;;;4984526;28;20452;-75
2023/01/14 18:21:04;;;;;;;2.30;1.53;;;9.80;99.90;;;;;;4988432;28;20472;-75
2023/01/14 18:23:31;;;;;;;2.50;1.40;;;9.90;99.90;;;;;;4988043;28;20547;-75
2023/01/14 18:26:02;;;;;;;1.67;1.40;;;9.80;99.90;;;;;;4987373;28;20466;-75
2023/01/14 18:28:34;;;;;;;1.50;1.30;;;9.80;99.90;;;;;;4987729;28;20457;-75
2023/01/14 18:31:01;;;;;;;3.30;1.40;;;9.90;99.90;;;;;;4987851;28;20498;-75
2023/01/14 18:33:28;;;;;;;2.40;1.50;;;9.90;99.90;;;;;;4988038;28;20448;-75
2023/01/14 18:35:56;;;;;;;3.00;1.90;;;9.90;99.90;;;;;;4987481;28;20455;-74
2023/01/14 18:38:23;;;;;;;1.43;1.33;;;9.90;99.90;;;;;;4987471;28;20460;-75
2023/01/14 18:40:50;;;;;;;1.60;1.50;;;10.00;99.90;;;;;;4988158;28;20472;-74
2023/01/14 18:43:17;;;;;;;3.50;1.57;;;9.90;99.90;;;;;;4987487;28;20447;-74
2023/01/14 18:45:44;;;;;;;3.33;2.10;;;10.00;99.90;;;;;;4987743;28;20454;-74
2023/01/14 18:48:11;;;;;;;1.80;1.53;;;10.00;99.90;;;;;;4987435;28;20868;-73
2023/01/14 18:50:38;;;;;;;1.57;1.40;;;10.00;99.90;;;;;;4987816;28;20562;-73
2023/01/14 18:53:06;;;;;;;3.57;1.43;;;10.00;99.90;;;;;;4987334;28;20460;-73